createdAt,value
2019-05-26T00:00:32.248Z,11.47
2019-05-26T00:03:04.111Z,12.13
2019-05-26T00:05:35.886Z,11.00
2019-05-26T00:08:07.677Z,10.03
2019-05-26T00:10:39.523Z,9.87
2019-05-26T00:13:11.375Z,9.23
2019-05-26T00:15:43.158Z,14.30
2019-05-26T00:18:14.982Z,9.70
2019-05-26T00:20:47.821Z,8.90
2019-05-26T00:23:19.607Z,8.90
2019-05-26T00:25:51.384Z,9.77
2019-05-26T00:28:23.158Z,8.95
2019-05-26T00:30:54.932Z,7.73
2019-05-26T00:33:26.714Z,6.97
2019-05-26T00:35:58.480Z,6.33
2019-05-26T00:38:30.256Z,7.00
2019-05-26T00:41:02.097Z,7.47
2019-05-26T00:43:33.884Z,8.80
2019-05-26T00:46:06.094Z,10.83
2019-05-26T00:48:37.873Z,10.90
2019-05-26T00:51:09.649Z,11.07
2019-05-26T00:53:41.731Z,8.37
2019-05-26T00:56:13.492Z,8.27
2019-05-26T00:58:45.277Z,9.07
2019-05-26T01:01:18.187Z,7.65
2019-05-26T01:03:49.958Z,8.80
2019-05-26T01:06:21.726Z,8.98
2019-05-26T01:08:53.635Z,8.35
2019-05-26T01:11:25.405Z,9.05
2019-05-26T01:13:58.153Z,9.37
2019-05-26T01:16:30.892Z,9.48
2019-05-26T01:19:09.068Z,8.33
2019-05-26T01:21:40.832Z,7.63
2019-05-26T01:24:12.603Z,6.33
2019-05-26T01:26:44.434Z,6.10
2019-05-26T01:29:16.205Z,6.67
2019-05-26T01:31:47.968Z,6.87
2019-05-26T01:34:19.749Z,8.60
2019-05-26T01:36:51.692Z,7.87
2019-05-26T01:39:23.525Z,7.28
2019-05-26T01:41:55.288Z,6.60
2019-05-26T01:44:27.066Z,4.95
2019-05-26T01:46:58.832Z,6.87
2019-05-26T01:49:30.609Z,6.40
2019-05-26T01:52:02.372Z,5.90
2019-05-26T01:54:35.214Z,6.30
2019-05-26T01:57:08.052Z,10.33
2019-05-26T01:59:40.297Z,7.33
2019-05-26T02:02:13.136Z,6.70
2019-05-26T02:04:44.921Z,6.72
2019-05-26T02:07:16.676Z,7.42
2019-05-26T02:09:48.462Z,6.67
2019-05-26T02:12:20.223Z,9.03
2019-05-26T02:14:52.014Z,5.17
2019-05-26T02:17:23.782Z,4.92
2019-05-26T02:19:55.630Z,6.13
2019-05-26T02:22:27.390Z,5.50
2019-05-26T02:24:59.157Z,7.47
2019-05-26T02:27:31.885Z,6.13
2019-05-26T02:30:04.126Z,5.10
2019-05-26T02:32:36.138Z,5.73
2019-05-26T02:35:10.311Z,7.47
2019-05-26T02:37:42.307Z,6.80
2019-05-26T02:40:15.004Z,5.73
2019-05-26T02:42:46.760Z,4.67
2019-05-26T02:45:20.603Z,4.80
2019-05-26T02:47:52.443Z,3.97
2019-05-26T02:50:24.907Z,4.53
2019-05-26T02:52:56.667Z,3.40
2019-05-26T02:55:28.427Z,5.15
2019-05-26T02:58:00.189Z,4.57
2019-05-26T03:00:41.937Z,5.00
2019-05-26T03:03:15.980Z,4.93
2019-05-26T03:05:47.812Z,4.07
2019-05-26T03:08:19.568Z,4.23
2019-05-26T03:10:52.671Z,4.17
2019-05-26T03:13:24.423Z,5.37
2019-05-26T03:15:59.100Z,5.20
2019-05-26T03:18:33.396Z,5.33
2019-05-26T03:21:05.303Z,10.27
2019-05-26T03:23:37.134Z,15.83
2019-05-26T03:26:10.703Z,6.87
2019-05-26T03:28:42.551Z,8.20
2019-05-26T03:31:14.386Z,17.07
2019-05-26T03:33:46.157Z,7.10
2019-05-26T03:36:17.913Z,11.15
2019-05-26T03:38:49.676Z,6.77
2019-05-26T03:41:21.453Z,11.80
2019-05-26T03:43:53.218Z,6.57
2019-05-26T03:46:24.971Z,6.65
2019-05-26T03:48:56.724Z,6.47
2019-05-26T03:51:28.496Z,6.72
2019-05-26T03:54:00.241Z,4.77
2019-05-26T03:56:32.070Z,6.53
2019-05-26T03:59:03.831Z,4.60
2019-05-26T04:01:36.573Z,5.03
2019-05-26T04:04:08.319Z,6.27
2019-05-26T04:06:40.082Z,4.57
2019-05-26T04:09:11.835Z,5.30
2019-05-26T04:11:43.601Z,4.83
2019-05-26T04:14:15.690Z,11.57
2019-05-26T04:16:47.446Z,4.40
2019-05-26T04:19:19.204Z,9.50
2019-05-26T04:21:51.255Z,13.73
2019-05-26T04:24:23.015Z,7.30
2019-05-26T04:26:54.791Z,5.57
2019-05-26T04:29:26.540Z,7.95
2019-05-26T04:32:01.851Z,9.17
2019-05-26T04:34:31.820Z,8.10
2019-05-26T04:37:03.531Z,6.83
2019-05-26T04:39:35.287Z,6.40
2019-05-26T04:42:08.209Z,6.33
2019-05-26T04:44:39.964Z,7.30
2019-05-26T04:47:11.729Z,6.73
2019-05-26T04:49:43.493Z,7.50
2019-05-26T04:52:15.340Z,6.50
2019-05-26T04:54:47.109Z,7.00
2019-05-26T04:57:18.880Z,6.90
2019-05-26T04:59:50.639Z,5.77
2019-05-26T05:02:22.406Z,6.03
2019-05-26T05:04:54.155Z,5.43
2019-05-26T05:07:28.564Z,5.70
2019-05-26T05:09:59.632Z,5.60
2019-05-26T05:12:31.674Z,5.83
2019-05-26T05:15:05.277Z,5.97
2019-05-26T05:17:37.083Z,6.43
2019-05-26T05:20:10.053Z,7.57
2019-05-26T05:22:41.818Z,7.27
2019-05-26T05:25:15.265Z,6.97
2019-05-26T05:27:47.934Z,8.23
2019-05-26T05:30:20.709Z,8.40
2019-05-26T05:32:52.481Z,8.70
2019-05-26T05:35:24.244Z,9.08
2019-05-26T05:37:56.020Z,9.20
2019-05-26T05:40:28.819Z,10.60
2019-05-26T05:43:00.615Z,15.03
2019-05-26T05:45:32.395Z,14.07
2019-05-26T05:48:05.148Z,15.73
2019-05-26T05:50:39.354Z,17.30
2019-05-26T05:53:11.055Z,14.63
2019-05-26T05:55:42.835Z,15.00
2019-05-26T05:58:14.628Z,14.77
2019-05-26T06:00:47.047Z,16.60
2019-05-26T06:03:19.814Z,13.40
2019-05-26T06:05:51.894Z,15.80
2019-05-26T06:08:23.681Z,14.63
2019-05-26T06:10:55.463Z,15.63
2019-05-26T06:13:27.264Z,14.63
2019-05-26T06:15:59.062Z,16.27
2019-05-26T06:18:30.848Z,16.03
2019-05-26T06:21:02.635Z,15.43
2019-05-26T06:23:36.928Z,15.80
2019-05-26T06:26:09.075Z,15.13
2019-05-26T06:28:41.102Z,14.93
2019-05-26T06:31:12.893Z,15.70
2019-05-26T06:33:44.766Z,15.83
2019-05-26T06:36:16.546Z,16.60
2019-05-26T06:38:48.349Z,15.73
2019-05-26T06:41:32.994Z,15.35
2019-05-26T06:43:54.269Z,14.53
2019-05-26T06:46:26.053Z,15.08
2019-05-26T06:49:00.706Z,15.33
2019-05-26T06:51:32.547Z,15.77
2019-05-26T06:54:04.407Z,15.10
2019-05-26T06:56:36.200Z,17.17
2019-05-26T06:59:07.996Z,17.90
2019-05-26T07:01:39.778Z,16.70
2019-05-26T07:04:11.577Z,15.63
2019-05-26T07:06:43.366Z,15.20
2019-05-26T07:09:15.160Z,16.77
2019-05-26T07:11:55.631Z,15.37
2019-05-26T07:14:20.432Z,17.52
2019-05-26T07:16:52.282Z,15.37
2019-05-26T07:19:24.083Z,17.00
2019-05-26T07:21:55.864Z,15.67
2019-05-26T07:24:29.412Z,14.83
2019-05-26T07:27:01.138Z,16.07
2019-05-26T07:29:32.938Z,14.23
2019-05-26T07:32:05.594Z,15.10
2019-05-26T07:34:37.392Z,14.03
2019-05-26T07:37:09.171Z,15.60
2019-05-26T07:39:40.970Z,18.07
2019-05-26T07:42:12.756Z,17.93
2019-05-26T07:44:44.550Z,16.67
2019-05-26T07:47:16.338Z,15.93
2019-05-26T07:49:48.136Z,17.37
2019-05-26T07:52:20.014Z,16.60
2019-05-26T07:54:52.241Z,16.37
2019-05-26T07:57:24.026Z,18.40
2019-05-26T07:59:55.832Z,23.57
2019-05-26T08:02:27.619Z,22.20
2019-05-26T08:04:59.436Z,14.07
2019-05-26T08:07:31.203Z,14.37
2019-05-26T08:10:03.156Z,13.53
2019-05-26T08:12:34.949Z,13.73
2019-05-26T08:15:07.782Z,16.27
2019-05-26T08:17:39.592Z,17.03
2019-05-26T08:20:12.620Z,14.20
2019-05-26T08:22:44.471Z,15.20
2019-05-26T08:25:16.852Z,13.68
2019-05-26T08:27:48.704Z,12.73
2019-05-26T08:30:20.736Z,13.80
2019-05-26T08:32:52.991Z,16.03
2019-05-26T08:35:24.933Z,16.62
2019-05-26T08:37:57.180Z,12.03
2019-05-26T08:40:28.973Z,14.13
2019-05-26T08:43:01.201Z,11.57
2019-05-26T08:45:32.983Z,12.77
2019-05-26T08:48:05.105Z,13.17
2019-05-26T08:50:36.889Z,12.30
2019-05-26T08:53:08.673Z,12.27
2019-05-26T08:55:40.470Z,14.67
2019-05-26T08:58:12.252Z,11.03
2019-05-26T09:00:44.059Z,11.93
2019-05-26T09:03:15.860Z,12.40
2019-05-26T09:05:47.942Z,10.13
2019-05-26T09:08:19.725Z,13.00
2019-05-26T09:10:51.521Z,13.00
2019-05-26T09:13:23.300Z,14.47
2019-05-26T09:15:55.089Z,12.50
2019-05-26T09:18:26.940Z,11.30
2019-05-26T09:21:00.377Z,12.43
2019-05-26T09:23:32.152Z,12.57
2019-05-26T09:26:04.015Z,9.77
2019-05-26T09:28:35.792Z,10.83
2019-05-26T09:31:07.583Z,10.90
2019-05-26T09:33:39.436Z,10.77
2019-05-26T09:36:11.227Z,11.47
2019-05-26T09:38:43.001Z,8.53
2019-05-26T09:41:14.794Z,8.83
2019-05-26T09:43:46.543Z,7.90
2019-05-26T09:46:18.633Z,14.53
2019-05-26T09:48:50.406Z,7.40
2019-05-26T09:51:23.162Z,6.03
2019-05-26T09:54:01.607Z,6.43
2019-05-26T09:56:28.403Z,5.37
2019-05-26T09:59:00.180Z,6.10
2019-05-26T10:01:31.958Z,8.27
2019-05-26T10:04:03.724Z,7.00
2019-05-26T10:06:35.778Z,7.20
2019-05-26T10:09:08.977Z,8.20
2019-05-26T10:11:40.837Z,9.87
2019-05-26T10:14:12.604Z,11.53
2019-05-26T10:16:44.376Z,8.97
2019-05-26T10:19:16.139Z,8.05
2019-05-26T10:21:47.923Z,7.47
2019-05-26T10:24:20.032Z,10.18
2019-05-26T10:26:51.809Z,8.27
2019-05-26T10:29:23.585Z,10.10
2019-05-26T10:31:55.376Z,10.93
2019-05-26T10:34:27.419Z,13.20
2019-05-26T10:36:59.205Z,35.60
2019-05-26T10:39:30.979Z,9.57
2019-05-26T10:42:02.757Z,10.03
2019-05-26T10:44:34.533Z,16.00
2019-05-26T10:47:06.318Z,10.87
2019-05-26T10:49:38.446Z,11.40
2019-05-26T10:52:10.804Z,9.60
2019-05-26T10:54:42.563Z,8.80
2019-05-26T10:57:14.340Z,10.80
2019-05-26T10:59:46.115Z,10.83
2019-05-26T11:02:17.899Z,38.42
2019-05-26T11:04:49.757Z,10.73
2019-05-26T11:07:21.534Z,9.63
2019-05-26T11:09:53.311Z,7.00
2019-05-26T11:12:25.085Z,10.08
2019-05-26T11:14:56.848Z,7.30
2019-05-26T11:17:28.631Z,10.80
2019-05-26T11:20:00.403Z,9.97
2019-05-26T11:22:32.174Z,7.30
2019-05-26T11:25:05.950Z,7.03
2019-05-26T11:27:38.712Z,8.60
2019-05-26T11:30:14.443Z,7.43
2019-05-26T11:32:46.217Z,7.93
2019-05-26T11:35:19.592Z,9.48
2019-05-26T11:37:51.364Z,6.10
2019-05-26T11:40:23.268Z,6.53
2019-05-26T11:42:55.049Z,7.80
2019-05-26T11:45:26.816Z,9.08
2019-05-26T11:47:58.587Z,5.93
2019-05-26T11:50:30.355Z,4.78
2019-05-26T11:53:02.128Z,6.10
2019-05-26T11:55:33.895Z,5.87
2019-05-26T11:58:05.816Z,4.62
2019-05-26T12:00:37.928Z,5.07
2019-05-26T12:03:10.944Z,4.60
2019-05-26T12:05:42.712Z,4.67
2019-05-26T12:08:14.490Z,4.62
2019-05-26T12:10:46.251Z,4.42
2019-05-26T12:13:18.036Z,4.65
2019-05-26T12:15:49.822Z,6.45
2019-05-26T12:18:21.588Z,3.75
2019-05-26T12:20:53.355Z,4.17
2019-05-26T12:23:25.132Z,7.22
2019-05-26T12:25:56.901Z,3.40
2019-05-26T12:28:28.687Z,3.60
2019-05-26T12:31:00.468Z,5.17
2019-05-26T12:33:32.245Z,3.60
2019-05-26T12:36:04.620Z,5.17
2019-05-26T12:38:38.037Z,4.35
2019-05-26T12:41:09.977Z,3.42
2019-05-26T12:43:42.665Z,4.17
2019-05-26T12:46:14.811Z,4.10
2019-05-26T12:48:46.771Z,3.95
2019-05-26T12:51:18.614Z,3.62
2019-05-26T12:53:50.391Z,3.30
2019-05-26T12:56:22.161Z,3.95
2019-05-26T12:58:53.935Z,2.92
2019-05-26T13:01:25.870Z,3.33
2019-05-26T13:03:57.644Z,6.22
2019-05-26T13:06:29.407Z,5.23
2019-05-26T13:09:01.190Z,3.27
2019-05-26T13:11:34.323Z,5.15
2019-05-26T13:14:06.357Z,6.75
2019-05-26T13:16:39.185Z,2.53
2019-05-26T13:19:11.239Z,3.98
2019-05-26T13:21:43.086Z,3.95
2019-05-26T13:24:14.862Z,2.65
2019-05-26T13:26:46.644Z,5.47
2019-05-26T13:29:18.421Z,3.47
2019-05-26T13:31:50.186Z,2.58
2019-05-26T13:34:22.055Z,3.77
2019-05-26T13:36:53.794Z,3.87
2019-05-26T13:39:26.477Z,4.47
2019-05-26T13:41:58.258Z,3.75
2019-05-26T13:44:30.572Z,2.17
2019-05-26T13:47:02.338Z,3.75
2019-05-26T13:49:34.134Z,4.75
2019-05-26T13:52:05.980Z,3.27
2019-05-26T13:54:37.741Z,2.83
2019-05-26T13:57:11.011Z,2.45
2019-05-26T13:59:42.792Z,3.62
2019-05-26T14:02:14.563Z,2.87
2019-05-26T14:04:46.348Z,4.70
2019-05-26T14:07:18.116Z,2.45
2019-05-26T14:09:49.894Z,2.90
2019-05-26T14:12:21.650Z,3.07
2019-05-26T14:14:54.396Z,6.40
2019-05-26T14:17:27.419Z,3.27
2019-05-26T14:20:01.585Z,2.27
2019-05-26T14:22:33.359Z,2.72
2019-05-26T14:25:07.443Z,3.22
2019-05-26T14:27:39.207Z,2.20
2019-05-26T14:30:11.318Z,2.50
2019-05-26T14:32:43.086Z,3.50
2019-05-26T14:35:14.941Z,3.30
2019-05-26T14:37:46.701Z,2.47
2019-05-26T14:40:18.640Z,2.90
2019-05-26T14:42:50.844Z,2.15
2019-05-26T14:45:22.958Z,2.73
2019-05-26T14:47:55.769Z,2.30
2019-05-26T14:50:27.688Z,2.58
2019-05-26T14:52:59.454Z,3.72
2019-05-26T14:55:31.237Z,3.58
2019-05-26T14:58:15.195Z,3.42
2019-05-26T15:00:36.490Z,2.77
2019-05-26T15:03:08.256Z,2.77
2019-05-26T15:05:40.023Z,2.50
2019-05-26T15:08:11.785Z,2.77
2019-05-26T15:10:43.560Z,3.75
2019-05-26T15:13:15.359Z,2.50
2019-05-26T15:15:47.117Z,2.47
2019-05-26T15:18:19.861Z,2.40
2019-05-26T15:20:51.648Z,3.08
2019-05-26T15:23:23.408Z,2.67
2019-05-26T15:25:56.152Z,2.90
2019-05-26T15:28:27.922Z,3.57
2019-05-26T15:30:59.705Z,16.37
2019-05-26T15:33:32.447Z,5.37
2019-05-26T15:36:04.249Z,2.72
2019-05-26T15:38:42.931Z,2.60
2019-05-26T15:41:09.481Z,3.00
2019-05-26T15:43:41.255Z,4.00
2019-05-26T15:46:24.710Z,3.97
2019-05-26T15:48:47.461Z,3.02
2019-05-26T16:31:16.649Z,6.33
2019-05-26T16:33:48.403Z,2.40
2019-05-26T16:36:21.469Z,3.85
2019-05-26T16:38:53.432Z,3.65
2019-05-26T16:41:25.206Z,3.27
2019-05-26T16:43:56.981Z,32.48
2019-05-26T16:46:28.764Z,4.00
2019-05-26T16:49:00.534Z,2.77
2019-05-26T16:51:32.328Z,2.70
2019-05-26T16:54:05.706Z,2.40
2019-05-26T16:56:37.476Z,3.05
2019-05-26T16:59:09.244Z,2.30
2019-05-26T17:01:41.023Z,1.87
2019-05-26T17:04:12.791Z,1.80
2019-05-26T17:06:44.570Z,2.00
2019-05-26T17:09:16.355Z,3.97
2019-05-26T17:11:48.130Z,2.10
2019-05-26T17:14:19.898Z,2.02
2019-05-26T17:16:51.687Z,1.90
2019-05-26T17:19:23.447Z,2.47
2019-05-26T17:21:55.313Z,2.60
2019-05-26T17:24:27.079Z,2.55
2019-05-26T17:26:58.858Z,1.87
2019-05-26T17:29:30.627Z,1.80
2019-05-26T17:32:02.401Z,2.03
2019-05-26T17:34:34.176Z,3.33
2019-05-26T17:37:05.947Z,1.87
2019-05-26T17:39:37.713Z,1.60
2019-05-26T17:42:10.899Z,2.33
2019-05-26T17:44:43.716Z,1.80
2019-05-26T17:47:29.181Z,3.40
2019-05-26T17:49:49.032Z,1.70
2019-05-26T17:52:20.880Z,2.30
2019-05-26T17:54:52.671Z,2.03
2019-05-26T17:57:24.423Z,2.10
2019-05-26T17:59:56.269Z,2.63
2019-05-26T18:02:28.284Z,2.83
2019-05-26T18:05:01.021Z,2.00
2019-05-26T18:07:32.936Z,3.83
2019-05-26T18:10:07.483Z,4.23
2019-05-26T18:12:39.266Z,2.40
2019-05-26T18:15:11.733Z,2.37
2019-05-26T18:17:47.332Z,2.47
2019-05-26T18:20:17.115Z,3.27
2019-05-26T18:22:48.971Z,3.83
2019-05-26T18:25:20.839Z,2.42
2019-05-26T18:27:52.678Z,2.60
2019-05-26T18:30:25.292Z,2.45
2019-05-26T18:32:57.049Z,2.73
2019-05-26T18:35:28.950Z,2.30
2019-05-26T18:38:00.794Z,4.27
2019-05-26T18:40:32.631Z,2.70
2019-05-26T18:43:04.404Z,3.17
2019-05-26T18:45:36.242Z,3.80
2019-05-26T18:48:08.229Z,3.10
2019-05-26T18:50:40.130Z,3.10
2019-05-26T18:53:12.058Z,3.20
2019-05-26T18:55:43.829Z,3.30
2019-05-26T18:58:15.677Z,3.43
2019-05-26T19:00:47.441Z,3.67
2019-05-26T19:03:19.226Z,3.98
2019-05-26T19:05:50.989Z,4.40
2019-05-26T19:08:22.768Z,3.30
2019-05-26T19:10:54.535Z,3.57
2019-05-26T19:13:26.312Z,3.70
2019-05-26T19:15:58.074Z,3.80
2019-05-26T19:18:29.858Z,4.90
2019-05-26T19:21:03.341Z,4.00
2019-05-26T19:23:36.181Z,5.90
2019-05-26T19:26:08.023Z,5.67
2019-05-26T19:28:40.759Z,5.20
2019-05-26T19:31:12.525Z,3.23
2019-05-26T19:33:44.304Z,3.67
2019-05-26T19:36:16.151Z,3.12
2019-05-26T19:38:47.930Z,3.17
2019-05-26T19:41:19.697Z,3.23
2019-05-26T19:43:52.490Z,4.60
2019-05-26T19:46:24.927Z,3.65
2019-05-26T19:48:56.721Z,8.23
2019-05-26T19:51:28.494Z,4.25
2019-05-26T19:54:00.278Z,3.33
2019-05-26T19:56:32.048Z,3.20
2019-05-26T19:59:03.828Z,5.23
2019-05-26T20:01:35.600Z,4.40
2019-05-26T20:04:07.392Z,4.70
2019-05-26T20:06:39.158Z,3.43
2019-05-26T20:09:11.418Z,3.77
2019-05-26T20:11:43.194Z,3.10
2019-05-26T20:14:14.978Z,4.47
2019-05-26T20:16:46.746Z,4.97
2019-05-26T20:19:18.605Z,4.67
2019-05-26T20:21:50.375Z,7.37
2019-05-26T20:24:22.164Z,3.35
2019-05-26T20:26:54.253Z,4.03
2019-05-26T20:29:26.032Z,5.20
2019-05-26T20:31:57.799Z,2.77
2019-05-26T20:34:30.559Z,3.83
2019-05-26T20:37:02.371Z,5.60
2019-05-26T20:39:34.108Z,4.30
2019-05-26T20:42:06.498Z,3.50
2019-05-26T20:44:38.429Z,3.40
2019-05-26T20:47:11.398Z,4.00
2019-05-26T20:49:45.727Z,4.57
2019-05-26T20:52:17.017Z,3.77
2019-05-26T20:54:48.790Z,4.83
2019-05-26T20:57:20.561Z,3.33
2019-05-26T20:59:52.342Z,4.13
2019-05-26T21:02:24.117Z,4.20
2019-05-26T21:04:55.901Z,2.97
2019-05-26T21:07:28.415Z,5.33
2019-05-26T21:10:00.300Z,3.47
2019-05-26T21:12:32.031Z,4.23
2019-05-26T21:15:04.076Z,3.90
2019-05-26T21:17:35.918Z,6.53
2019-05-26T21:20:10.305Z,4.30
2019-05-26T21:22:42.073Z,3.30
2019-05-26T21:25:14.192Z,6.23
2019-05-26T21:27:45.966Z,6.57
2019-05-26T21:30:19.142Z,4.30
2019-05-26T21:32:50.941Z,3.50
2019-05-26T21:35:23.006Z,5.03
2019-05-26T21:37:54.773Z,5.60
2019-05-26T21:40:26.551Z,4.12
2019-05-26T21:42:58.324Z,3.30
2019-05-26T21:45:30.106Z,3.67
2019-05-26T21:48:01.882Z,5.40
2019-05-26T21:50:33.658Z,3.50
2019-05-26T21:53:05.497Z,4.27
2019-05-26T21:55:37.279Z,2.90
2019-05-26T21:58:09.049Z,3.57
2019-05-26T22:00:42.855Z,3.67
2019-05-26T22:03:14.705Z,8.20
2019-05-26T22:05:46.484Z,3.63
2019-05-26T22:08:19.254Z,3.42
2019-05-26T22:10:51.034Z,8.00
2019-05-26T22:13:24.437Z,5.67
2019-05-26T22:15:56.294Z,3.37
2019-05-26T22:18:28.063Z,6.80
2019-05-26T22:20:59.851Z,3.07
2019-05-26T22:23:31.622Z,3.77
2019-05-26T22:26:03.402Z,4.70
2019-05-26T22:28:35.169Z,3.27
2019-05-26T22:31:06.947Z,2.70
2019-05-26T22:33:38.720Z,3.90
2019-05-26T22:36:10.933Z,3.97
2019-05-26T22:38:43.008Z,3.13
2019-05-26T22:41:14.793Z,5.90
2019-05-26T22:43:46.564Z,4.27
2019-05-26T22:46:18.349Z,4.60
2019-05-26T22:48:50.120Z,4.13
2019-05-26T22:51:21.908Z,3.15
2019-05-26T22:53:53.989Z,4.83
2019-05-26T22:56:25.766Z,3.90
2019-05-26T22:58:57.613Z,4.60
2019-05-26T23:01:29.465Z,9.17
2019-05-26T23:04:03.245Z,4.63
2019-05-26T23:06:34.783Z,3.87
2019-05-26T23:09:07.494Z,3.07
2019-05-26T23:11:39.278Z,3.93
2019-05-26T23:14:11.056Z,6.87
2019-05-26T23:16:42.840Z,5.47
2019-05-26T23:19:19.251Z,3.30
2019-05-26T23:21:48.368Z,3.17
2019-05-26T23:24:20.143Z,3.95
2019-05-26T23:26:51.924Z,4.00
2019-05-26T23:29:23.700Z,3.10
2019-05-26T23:31:55.519Z,4.77
2019-05-26T23:34:27.286Z,2.90
2019-05-26T23:36:59.135Z,3.90
2019-05-26T23:39:30.903Z,3.30
2019-05-26T23:42:02.687Z,4.53
2019-05-26T23:44:34.460Z,4.43
2019-05-26T23:47:06.236Z,3.47
2019-05-26T23:49:38.189Z,4.07
2019-05-26T23:52:11.218Z,3.27
2019-05-26T23:54:42.988Z,3.97
2019-05-26T23:57:14.768Z,3.97
2019-05-26T23:59:46.544Z,4.27
